sensor_id;sensor_type;location;lat;lon;timestamp;P1;durP1;ratioP1;P2;durP2;ratioP2
18411;SDS011;27097;51.738;19.472;2023-08-12T00:01:59;10.35;;;4.72;;
18411;SDS011;27097;51.738;19.472;2023-08-12T00:04:26;11.20;;;4.53;;
18411;SDS011;27097;51.738;19.472;2023-08-12T00:06:53;9.20;;;4.20;;
18411;SDS011;27097;51.738;19.472;2023-08-12T00:09:20;9.48;;;4.80;;
18411;SDS011;27097;51.738;19.472;2023-08-12T00:11:47;9.48;;;4.43;;
18411;SDS011;27097;51.738;19.472;2023-08-12T00:14:15;11.55;;;4.32;;
18411;SDS011;27097;51.738;19.472;2023-08-12T00:16:42;10.68;;;3.83;;
18411;SDS011;27097;51.738;19.472;2023-08-12T00:19:09;8.68;;;4.10;;
18411;SDS011;27097;51.738;19.472;2023-08-12T00:21:35;10.23;;;4.65;;
18411;SDS011;27097;51.738;19.472;2023-08-12T00:24:02;9.50;;;4.07;;
18411;SDS011;27097;51.738;19.472;2023-08-12T00:26:30;7.78;;;4.32;;
18411;SDS011;27097;51.738;19.472;2023-08-12T00:28:56;7.20;;;3.92;;
18411;SDS011;27097;51.738;19.472;2023-08-12T00:31:24;7.43;;;3.72;;
18411;SDS011;27097;51.738;19.472;2023-08-12T00:33:51;7.00;;;4.13;;
18411;SDS011;27097;51.738;19.472;2023-08-12T00:36:18;9.70;;;4.20;;
18411;SDS011;27097;51.738;19.472;2023-08-12T00:38:45;8.40;;;4.25;;
18411;SDS011;27097;51.738;19.472;2023-08-12T00:41:12;6.30;;;3.83;;
18411;SDS011;27097;51.738;19.472;2023-08-12T00:43:38;8.52;;;3.97;;
18411;SDS011;27097;51.738;19.472;2023-08-12T00:46:05;7.82;;;4.13;;
18411;SDS011;27097;51.738;19.472;2023-08-12T00:48:33;8.20;;;3.90;;
18411;SDS011;27097;51.738;19.472;2023-08-12T00:51:00;7.43;;;4.13;;
18411;SDS011;27097;51.738;19.472;2023-08-12T00:53:28;8.70;;;3.70;;
18411;SDS011;27097;51.738;19.472;2023-08-12T00:55:55;7.10;;;4.10;;
18411;SDS011;27097;51.738;19.472;2023-08-12T00:58:22;7.85;;;4.22;;
18411;SDS011;27097;51.738;19.472;2023-08-12T01:00:49;7.03;;;3.60;;
18411;SDS011;27097;51.738;19.472;2023-08-12T01:03:16;9.27;;;3.92;;
18411;SDS011;27097;51.738;19.472;2023-08-12T01:05:44;6.82;;;3.80;;
18411;SDS011;27097;51.738;19.472;2023-08-12T01:08:12;9.13;;;4.22;;
18411;SDS011;27097;51.738;19.472;2023-08-12T01:10:39;6.60;;;3.45;;
18411;SDS011;27097;51.738;19.472;2023-08-12T01:13:14;7.97;;;4.00;;
18411;SDS011;27097;51.738;19.472;2023-08-12T01:15:52;6.60;;;3.60;;
18411;SDS011;27097;51.738;19.472;2023-08-12T01:18:21;7.03;;;3.88;;
18411;SDS011;27097;51.738;19.472;2023-08-12T01:20:51;7.40;;;3.72;;
18411;SDS011;27097;51.738;19.472;2023-08-12T01:23:20;13.27;;;3.92;;
18411;SDS011;27097;51.738;19.472;2023-08-12T01:25:47;7.93;;;3.70;;
18411;SDS011;27097;51.738;19.472;2023-08-12T01:28:14;8.40;;;3.90;;
18411;SDS011;27097;51.738;19.472;2023-08-12T01:30:43;7.03;;;3.60;;
18411;SDS011;27097;51.738;19.472;2023-08-12T01:33:19;6.63;;;3.45;;
18411;SDS011;27097;51.738;19.472;2023-08-12T01:35:53;5.32;;;3.60;;
18411;SDS011;27097;51.738;19.472;2023-08-12T01:38:27;6.80;;;3.72;;
18411;SDS011;27097;51.738;19.472;2023-08-12T01:40:56;6.90;;;3.60;;
18411;SDS011;27097;51.738;19.472;2023-08-12T01:43:24;6.53;;;3.55;;
18411;SDS011;27097;51.738;19.472;2023-08-12T01:45:51;6.18;;;3.45;;
18411;SDS011;27097;51.738;19.472;2023-08-12T01:48:18;6.28;;;3.70;;
18411;SDS011;27097;51.738;19.472;2023-08-12T01:50:48;5.57;;;2.92;;
18411;SDS011;27097;51.738;19.472;2023-08-12T01:53:15;6.15;;;3.53;;
18411;SDS011;27097;51.738;19.472;2023-08-12T01:55:43;5.38;;;3.33;;
18411;SDS011;27097;51.738;19.472;2023-08-12T01:58:10;6.15;;;3.58;;
18411;SDS011;27097;51.738;19.472;2023-08-12T02:00:37;4.40;;;3.05;;
18411;SDS011;27097;51.738;19.472;2023-08-12T02:03:05;5.85;;;3.05;;
18411;SDS011;27097;51.738;19.472;2023-08-12T02:05:32;4.60;;;3.10;;
18411;SDS011;27097;51.738;19.472;2023-08-12T02:07:59;5.82;;;3.40;;
18411;SDS011;27097;51.738;19.472;2023-08-12T02:10:26;4.57;;;3.17;;
18411;SDS011;27097;51.738;19.472;2023-08-12T02:12:54;5.00;;;2.92;;
18411;SDS011;27097;51.738;19.472;2023-08-12T02:15:21;7.13;;;3.03;;
18411;SDS011;27097;51.738;19.472;2023-08-12T02:17:48;4.93;;;3.00;;
18411;SDS011;27097;51.738;19.472;2023-08-12T02:20:15;5.15;;;3.15;;
18411;SDS011;27097;51.738;19.472;2023-08-12T02:22:41;5.03;;;2.97;;
18411;SDS011;27097;51.738;19.472;2023-08-12T02:25:08;5.05;;;2.95;;
18411;SDS011;27097;51.738;19.472;2023-08-12T02:27:35;5.03;;;3.20;;
18411;SDS011;27097;51.738;19.472;2023-08-12T02:30:04;5.95;;;3.15;;
18411;SDS011;27097;51.738;19.472;2023-08-12T02:32:31;5.22;;;3.00;;
18411;SDS011;27097;51.738;19.472;2023-08-12T02:34:58;5.50;;;3.03;;
18411;SDS011;27097;51.738;19.472;2023-08-12T02:37:25;5.28;;;2.83;;
18411;SDS011;27097;51.738;19.472;2023-08-12T02:39:52;7.50;;;3.35;;
18411;SDS011;27097;51.738;19.472;2023-08-12T02:42:19;6.05;;;3.33;;
18411;SDS011;27097;51.738;19.472;2023-08-12T02:44:46;7.10;;;3.28;;
18411;SDS011;27097;51.738;19.472;2023-08-12T02:47:14;4.85;;;3.08;;
18411;SDS011;27097;51.738;19.472;2023-08-12T02:49:41;4.00;;;2.88;;
18411;SDS011;27097;51.738;19.472;2023-08-12T02:52:08;4.30;;;2.80;;
18411;SDS011;27097;51.738;19.472;2023-08-12T02:54:35;6.85;;;2.70;;
18411;SDS011;27097;51.738;19.472;2023-08-12T02:57:02;5.95;;;2.80;;
18411;SDS011;27097;51.738;19.472;2023-08-12T02:59:29;5.38;;;2.90;;
18411;SDS011;27097;51.738;19.472;2023-08-12T03:01:56;6.10;;;2.75;;
18411;SDS011;27097;51.738;19.472;2023-08-12T03:04:24;5.22;;;3.17;;
18411;SDS011;27097;51.738;19.472;2023-08-12T03:06:51;5.10;;;2.60;;
18411;SDS011;27097;51.738;19.472;2023-08-12T03:09:17;5.90;;;2.97;;
18411;SDS011;27097;51.738;19.472;2023-08-12T03:11:45;3.90;;;2.50;;
18411;SDS011;27097;51.738;19.472;2023-08-12T03:14:12;4.65;;;2.83;;
18411;SDS011;27097;51.738;19.472;2023-08-12T03:16:38;4.32;;;2.70;;
18411;SDS011;27097;51.738;19.472;2023-08-12T03:19:05;5.07;;;2.75;;
18411;SDS011;27097;51.738;19.472;2023-08-12T03:21:33;3.58;;;2.53;;
18411;SDS011;27097;51.738;19.472;2023-08-12T03:24:00;7.63;;;2.70;;
18411;SDS011;27097;51.738;19.472;2023-08-12T03:26:27;4.93;;;2.67;;
18411;SDS011;27097;51.738;19.472;2023-08-12T03:28:54;5.78;;;2.80;;
18411;SDS011;27097;51.738;19.472;2023-08-12T03:31:21;4.97;;;2.70;;
18411;SDS011;27097;51.738;19.472;2023-08-12T03:33:47;6.97;;;3.00;;
18411;SDS011;27097;51.738;19.472;2023-08-12T03:36:14;4.35;;;2.85;;
18411;SDS011;27097;51.738;19.472;2023-08-12T03:38:43;3.22;;;2.42;;
18411;SDS011;27097;51.738;19.472;2023-08-12T03:41:09;4.50;;;2.65;;
18411;SDS011;27097;51.738;19.472;2023-08-12T03:43:36;5.38;;;2.80;;
18411;SDS011;27097;51.738;19.472;2023-08-12T03:46:03;4.45;;;2.35;;
18411;SDS011;27097;51.738;19.472;2023-08-12T03:48:30;3.95;;;2.45;;
18411;SDS011;27097;51.738;19.472;2023-08-12T03:50:57;6.25;;;2.80;;
18411;SDS011;27097;51.738;19.472;2023-08-12T03:53:24;3.35;;;2.47;;
18411;SDS011;27097;51.738;19.472;2023-08-12T03:55:52;5.90;;;2.70;;
18411;SDS011;27097;51.738;19.472;2023-08-12T03:58:19;3.55;;;2.65;;
18411;SDS011;27097;51.738;19.472;2023-08-12T04:00:45;4.35;;;2.50;;
18411;SDS011;27097;51.738;19.472;2023-08-12T04:03:12;3.33;;;2.40;;
18411;SDS011;27097;51.738;19.472;2023-08-12T04:05:46;4.07;;;2.38;;
18411;SDS011;27097;51.738;19.472;2023-08-12T04:08:14;4.78;;;2.60;;
18411;SDS011;27097;51.738;19.472;2023-08-12T04:10:43;4.80;;;2.38;;
18411;SDS011;27097;51.738;19.472;2023-08-12T04:13:12;3.97;;;2.60;;
18411;SDS011;27097;51.738;19.472;2023-08-12T04:15:39;4.03;;;2.63;;
18411;SDS011;27097;51.738;19.472;2023-08-12T04:18:06;3.63;;;2.20;;
18411;SDS011;27097;51.738;19.472;2023-08-12T04:20:33;4.75;;;2.30;;
18411;SDS011;27097;51.738;19.472;2023-08-12T04:23:00;5.72;;;2.45;;
18411;SDS011;27097;51.738;19.472;2023-08-12T04:25:27;3.55;;;2.38;;
18411;SDS011;27097;51.738;19.472;2023-08-12T04:27:54;4.50;;;2.72;;
18411;SDS011;27097;51.738;19.472;2023-08-12T04:30:22;5.70;;;2.45;;
18411;SDS011;27097;51.738;19.472;2023-08-12T04:32:49;4.10;;;2.47;;
18411;SDS011;27097;51.738;19.472;2023-08-12T04:35:15;3.47;;;2.40;;
18411;SDS011;27097;51.738;19.472;2023-08-12T04:37:42;4.88;;;2.55;;
18411;SDS011;27097;51.738;19.472;2023-08-12T04:40:09;4.15;;;2.63;;
18411;SDS011;27097;51.738;19.472;2023-08-12T04:42:37;5.63;;;2.67;;
18411;SDS011;27097;51.738;19.472;2023-08-12T04:45:04;3.67;;;2.50;;
18411;SDS011;27097;51.738;19.472;2023-08-12T04:47:33;3.80;;;2.67;;
18411;SDS011;27097;51.738;19.472;2023-08-12T04:50:00;4.22;;;2.58;;
18411;SDS011;27097;51.738;19.472;2023-08-12T04:52:27;4.35;;;2.58;;
18411;SDS011;27097;51.738;19.472;2023-08-12T04:54:53;4.22;;;2.25;;
18411;SDS011;27097;51.738;19.472;2023-08-12T04:57:20;3.88;;;2.22;;
18411;SDS011;27097;51.738;19.472;2023-08-12T04:59:47;4.97;;;2.83;;
18411;SDS011;27097;51.738;19.472;2023-08-12T05:02:14;3.55;;;2.33;;
18411;SDS011;27097;51.738;19.472;2023-08-12T05:04:44;4.15;;;2.30;;
18411;SDS011;27097;51.738;19.472;2023-08-12T05:07:14;5.45;;;2.72;;
18411;SDS011;27097;51.738;19.472;2023-08-12T05:09:41;5.53;;;2.50;;
18411;SDS011;27097;51.738;19.472;2023-08-12T05:12:09;3.55;;;2.10;;
18411;SDS011;27097;51.738;19.472;2023-08-12T05:14:36;4.00;;;2.53;;
18411;SDS011;27097;51.738;19.472;2023-08-12T05:17:03;5.47;;;2.55;;
18411;SDS011;27097;51.738;19.472;2023-08-12T05:19:30;4.05;;;2.40;;
18411;SDS011;27097;51.738;19.472;2023-08-12T05:21:58;4.68;;;2.30;;
18411;SDS011;27097;51.738;19.472;2023-08-12T05:24:25;4.25;;;2.53;;
18411;SDS011;27097;51.738;19.472;2023-08-12T05:26:52;3.65;;;2.30;;
18411;SDS011;27097;51.738;19.472;2023-08-12T05:29:19;6.15;;;2.55;;
18411;SDS011;27097;51.738;19.472;2023-08-12T05:31:45;6.57;;;2.28;;
18411;SDS011;27097;51.738;19.472;2023-08-12T05:34:12;5.00;;;2.38;;
18411;SDS011;27097;51.738;19.472;2023-08-12T05:36:39;6.50;;;2.42;;
18411;SDS011;27097;51.738;19.472;2023-08-12T05:39:07;6.03;;;2.38;;
18411;SDS011;27097;51.738;19.472;2023-08-12T05:41:34;3.63;;;2.53;;
18411;SDS011;27097;51.738;19.472;2023-08-12T05:44:01;8.00;;;2.65;;
18411;SDS011;27097;51.738;19.472;2023-08-12T05:46:28;4.80;;;2.40;;
18411;SDS011;27097;51.738;19.472;2023-08-12T05:48:55;5.00;;;2.35;;
18411;SDS011;27097;51.738;19.472;2023-08-12T05:51:21;9.02;;;2.35;;
18411;SDS011;27097;51.738;19.472;2023-08-12T05:53:48;6.88;;;2.63;;
18411;SDS011;27097;51.738;19.472;2023-08-12T05:56:17;8.88;;;2.70;;
18411;SDS011;27097;51.738;19.472;2023-08-12T05:58:44;7.25;;;2.13;;
18411;SDS011;27097;51.738;19.472;2023-08-12T06:01:10;7.45;;;2.30;;
18411;SDS011;27097;51.738;19.472;2023-08-12T06:03:37;6.97;;;2.70;;
18411;SDS011;27097;51.738;19.472;2023-08-12T06:06:04;7.38;;;2.42;;
18411;SDS011;27097;51.738;19.472;2023-08-12T06:08:31;9.23;;;2.50;;
18411;SDS011;27097;51.738;19.472;2023-08-12T06:10:57;6.15;;;2.28;;
18411;SDS011;27097;51.738;19.472;2023-08-12T06:13:26;4.97;;;2.67;;
18411;SDS011;27097;51.738;19.472;2023-08-12T06:15:53;13.57;;;2.42;;
18411;SDS011;27097;51.738;19.472;2023-08-12T06:18:19;6.05;;;2.53;;
18411;SDS011;27097;51.738;19.472;2023-08-12T06:20:46;5.55;;;2.28;;
18411;SDS011;27097;51.738;19.472;2023-08-12T06:23:13;11.35;;;2.90;;
18411;SDS011;27097;51.738;19.472;2023-08-12T06:25:40;14.65;;;2.80;;
18411;SDS011;27097;51.738;19.472;2023-08-12T06:28:08;7.03;;;2.95;;
18411;SDS011;27097;51.738;19.472;2023-08-12T06:30:36;13.40;;;2.33;;
18411;SDS011;27097;51.738;19.472;2023-08-12T06:33:03;7.18;;;2.00;;
18411;SDS011;27097;51.738;19.472;2023-08-12T06:35:30;7.70;;;2.63;;
18411;SDS011;27097;51.738;19.472;2023-08-12T06:37:57;6.20;;;2.33;;
18411;SDS011;27097;51.738;19.472;2023-08-12T06:40:24;5.88;;;2.30;;
18411;SDS011;27097;51.738;19.472;2023-08-12T06:42:51;9.80;;;2.40;;
18411;SDS011;27097;51.738;19.472;2023-08-12T06:45:18;10.40;;;2.13;;
18411;SDS011;27097;51.738;19.472;2023-08-12T06:47:46;9.57;;;2.22;;
18411;SDS011;27097;51.738;19.472;2023-08-12T06:50:13;6.65;;;2.28;;
18411;SDS011;27097;51.738;19.472;2023-08-12T06:52:40;7.47;;;2.38;;
18411;SDS011;27097;51.738;19.472;2023-08-12T06:55:07;5.38;;;2.13;;
18411;SDS011;27097;51.738;19.472;2023-08-12T06:57:34;8.05;;;2.42;;
18411;SDS011;27097;51.738;19.472;2023-08-12T07:00:01;4.30;;;1.95;;
18411;SDS011;27097;51.738;19.472;2023-08-12T07:02:28;5.45;;;2.30;;
18411;SDS011;27097;51.738;19.472;2023-08-12T07:04:57;6.05;;;2.30;;
18411;SDS011;27097;51.738;19.472;2023-08-12T07:07:24;7.82;;;2.25;;
18411;SDS011;27097;51.738;19.472;2023-08-12T07:09:50;6.72;;;2.10;;
18411;SDS011;27097;51.738;19.472;2023-08-12T07:12:17;4.18;;;2.15;;
18411;SDS011;27097;51.738;19.472;2023-08-12T07:14:44;5.75;;;2.10;;
18411;SDS011;27097;51.738;19.472;2023-08-12T07:17:11;4.93;;;1.92;;
18411;SDS011;27097;51.738;19.472;2023-08-12T07:19:38;4.50;;;1.90;;
18411;SDS011;27097;51.738;19.472;2023-08-12T07:22:06;6.90;;;1.95;;
18411;SDS011;27097;51.738;19.472;2023-08-12T07:24:33;2.92;;;1.92;;
18411;SDS011;27097;51.738;19.472;2023-08-12T07:27:00;5.72;;;2.10;;
18411;SDS011;27097;51.738;19.472;2023-08-12T07:29:27;3.63;;;1.80;;
18411;SDS011;27097;51.738;19.472;2023-08-12T07:31:53;2.60;;;1.90;;
18411;SDS011;27097;51.738;19.472;2023-08-12T07:34:20;3.58;;;2.10;;
18411;SDS011;27097;51.738;19.472;2023-08-12T07:36:47;6.05;;;2.20;;
18411;SDS011;27097;51.738;19.472;2023-08-12T07:39:15;4.75;;;1.92;;
18411;SDS011;27097;51.738;19.472;2023-08-12T07:41:42;3.40;;;1.70;;
18411;SDS011;27097;51.738;19.472;2023-08-12T07:44:09;4.45;;;1.92;;
18411;SDS011;27097;51.738;19.472;2023-08-12T07:46:36;4.28;;;1.80;;
18411;SDS011;27097;51.738;19.472;2023-08-12T07:49:03;3.55;;;1.90;;
18411;SDS011;27097;51.738;19.472;2023-08-12T07:51:30;3.40;;;1.98;;
18411;SDS011;27097;51.738;19.472;2023-08-12T07:53:57;5.60;;;1.98;;
18411;SDS011;27097;51.738;19.472;2023-08-12T07:56:25;5.65;;;2.15;;
18411;SDS011;27097;51.738;19.472;2023-08-12T07:58:52;4.07;;;1.98;;
18411;SDS011;27097;51.738;19.472;2023-08-12T08:01:18;3.22;;;2.08;;
18411;SDS011;27097;51.738;19.472;2023-08-12T08:03:45;3.22;;;1.80;;
18411;SDS011;27097;51.738;19.472;2023-08-12T08:06:12;4.72;;;1.92;;
18411;SDS011;27097;51.738;19.472;2023-08-12T08:08:39;3.28;;;2.00;;
18411;SDS011;27097;51.738;19.472;2023-08-12T08:11:06;3.63;;;1.92;;
18411;SDS011;27097;51.738;19.472;2023-08-12T08:13:34;3.00;;;1.90;;
18411;SDS011;27097;51.738;19.472;2023-08-12T08:16:01;2.80;;;1.90;;
18411;SDS011;27097;51.738;19.472;2023-08-12T08:18:28;3.97;;;2.45;;
18411;SDS011;27097;51.738;19.472;2023-08-12T08:20:54;4.13;;;1.90;;
18411;SDS011;27097;51.738;19.472;2023-08-12T08:23:22;5.70;;;2.00;;
18411;SDS011;27097;51.738;19.472;2023-08-12T08:25:48;3.15;;;1.90;;
18411;SDS011;27097;51.738;19.472;2023-08-12T08:28:15;3.25;;;1.83;;
18411;SDS011;27097;51.738;19.472;2023-08-12T08:30:43;4.78;;;2.10;;
18411;SDS011;27097;51.738;19.472;2023-08-12T08:33:10;11.55;;;1.88;;
18411;SDS011;27097;51.738;19.472;2023-08-12T08:35:37;3.78;;;2.03;;
18411;SDS011;27097;51.738;19.472;2023-08-12T08:38:04;22.92;;;2.67;;
18411;SDS011;27097;51.738;19.472;2023-08-12T08:40:31;10.68;;;2.58;;
18411;SDS011;27097;51.738;19.472;2023-08-12T08:42:59;8.73;;;2.75;;
18411;SDS011;27097;51.738;19.472;2023-08-12T08:45:28;11.70;;;2.30;;
18411;SDS011;27097;51.738;19.472;2023-08-12T08:47:59;10.50;;;2.70;;
18411;SDS011;27097;51.738;19.472;2023-08-12T08:50:27;9.25;;;2.60;;
18411;SDS011;27097;51.738;19.472;2023-08-12T08:52:55;11.27;;;2.70;;
18411;SDS011;27097;51.738;19.472;2023-08-12T08:55:23;9.10;;;2.83;;
18411;SDS011;27097;51.738;19.472;2023-08-12T08:57:50;11.32;;;2.95;;
18411;SDS011;27097;51.738;19.472;2023-08-12T09:00:17;6.55;;;2.47;;
18411;SDS011;27097;51.738;19.472;2023-08-12T09:02:45;11.30;;;2.47;;
18411;SDS011;27097;51.738;19.472;2023-08-12T09:05:16;6.90;;;2.85;;
18411;SDS011;27097;51.738;19.472;2023-08-12T09:07:43;7.25;;;2.50;;
18411;SDS011;27097;51.738;19.472;2023-08-12T09:10:11;6.65;;;2.10;;
18411;SDS011;27097;51.738;19.472;2023-08-12T09:12:39;8.70;;;2.10;;
18411;SDS011;27097;51.738;19.472;2023-08-12T09:15:06;6.70;;;2.20;;
18411;SDS011;27097;51.738;19.472;2023-08-12T09:17:34;4.18;;;1.83;;
18411;SDS011;27097;51.738;19.472;2023-08-12T09:20:01;7.43;;;2.17;;
18411;SDS011;27097;51.738;19.472;2023-08-12T09:22:33;5.80;;;2.00;;
18411;SDS011;27097;51.738;19.472;2023-08-12T09:25:01;5.40;;;2.15;;
18411;SDS011;27097;51.738;19.472;2023-08-12T09:27:30;4.68;;;2.25;;
18411;SDS011;27097;51.738;19.472;2023-08-12T09:29:58;4.80;;;1.90;;
18411;SDS011;27097;51.738;19.472;2023-08-12T09:32:25;5.55;;;2.10;;
18411;SDS011;27097;51.738;19.472;2023-08-12T09:34:53;6.30;;;1.90;;
18411;SDS011;27097;51.738;19.472;2023-08-12T09:37:21;4.28;;;2.22;;
18411;SDS011;27097;51.738;19.472;2023-08-12T09:39:51;4.93;;;1.92;;
18411;SDS011;27097;51.738;19.472;2023-08-12T09:42:18;3.70;;;2.15;;
18411;SDS011;27097;51.738;19.472;2023-08-12T09:44:45;4.47;;;2.25;;
18411;SDS011;27097;51.738;19.472;2023-08-12T09:47:12;5.82;;;2.10;;
18411;SDS011;27097;51.738;19.472;2023-08-12T09:49:39;3.00;;;1.75;;
18411;SDS011;27097;51.738;19.472;2023-08-12T09:52:07;3.25;;;1.88;;
18411;SDS011;27097;51.738;19.472;2023-08-12T09:54:34;5.15;;;2.22;;
18411;SDS011;27097;51.738;19.472;2023-08-12T09:57:05;3.45;;;1.85;;
18411;SDS011;27097;51.738;19.472;2023-08-12T09:59:36;3.70;;;2.03;;
18411;SDS011;27097;51.738;19.472;2023-08-12T10:02:07;5.18;;;2.00;;
18411;SDS011;27097;51.738;19.472;2023-08-12T10:04:44;2.78;;;1.80;;
18411;SDS011;27097;51.738;19.472;2023-08-12T10:07:11;2.85;;;1.80;;
18411;SDS011;27097;51.738;19.472;2023-08-12T10:09:38;3.08;;;1.90;;
18411;SDS011;27097;51.738;19.472;2023-08-12T10:12:07;5.72;;;1.98;;
18411;SDS011;27097;51.738;19.472;2023-08-12T10:14:35;3.33;;;1.80;;
18411;SDS011;27097;51.738;19.472;2023-08-12T10:17:02;6.45;;;2.30;;
18411;SDS011;27097;51.738;19.472;2023-08-12T10:19:29;9.10;;;2.00;;
18411;SDS011;27097;51.738;19.472;2023-08-12T10:21:57;4.65;;;2.00;;
18411;SDS011;27097;51.738;19.472;2023-08-12T10:24:26;4.90;;;1.85;;
18411;SDS011;27097;51.738;19.472;2023-08-12T10:26:53;7.10;;;2.28;;
18411;SDS011;27097;51.738;19.472;2023-08-12T10:29:24;5.50;;;1.98;;
18411;SDS011;27097;51.738;19.472;2023-08-12T10:31:54;2.63;;;1.92;;
18411;SDS011;27097;51.738;19.472;2023-08-12T10:34:23;5.63;;;2.10;;
18411;SDS011;27097;51.738;19.472;2023-08-12T10:36:53;4.88;;;2.00;;
18411;SDS011;27097;51.738;19.472;2023-08-12T10:39:21;10.13;;;2.05;;
18411;SDS011;27097;51.738;19.472;2023-08-12T10:41:54;6.60;;;2.13;;
18411;SDS011;27097;51.738;19.472;2023-08-12T10:44:25;3.22;;;1.92;;
18411;SDS011;27097;51.738;19.472;2023-08-12T10:46:53;7.38;;;1.98;;
18411;SDS011;27097;51.738;19.472;2023-08-12T10:49:21;10.23;;;2.28;;
18411;SDS011;27097;51.738;19.472;2023-08-12T10:51:48;6.70;;;2.13;;
18411;SDS011;27097;51.738;19.472;2023-08-12T10:54:17;5.53;;;2.40;;
18411;SDS011;27097;51.738;19.472;2023-08-12T10:59:53;5.50;;;2.08;;
18411;SDS011;27097;51.738;19.472;2023-08-12T11:02:21;10.05;;;1.95;;
18411;SDS011;27097;51.738;19.472;2023-08-12T11:04:53;10.38;;;2.00;;
18411;SDS011;27097;51.738;19.472;2023-08-12T11:07:23;11.35;;;2.40;;
18411;SDS011;27097;51.738;19.472;2023-08-12T11:09:58;7.85;;;2.10;;
18411;SDS011;27097;51.738;19.472;2023-08-12T11:12:30;8.68;;;2.75;;
18411;SDS011;27097;51.738;19.472;2023-08-12T11:15:00;2.97;;;1.85;;
18411;SDS011;27097;51.738;19.472;2023-08-12T11:17:33;5.47;;;2.13;;
18411;SDS011;27097;51.738;19.472;2023-08-12T11:20:02;7.85;;;1.95;;
18411;SDS011;27097;51.738;19.472;2023-08-12T11:22:31;5.50;;;2.08;;
18411;SDS011;27097;51.738;19.472;2023-08-12T11:25:01;3.83;;;1.92;;
18411;SDS011;27097;51.738;19.472;2023-08-12T11:27:34;4.22;;;1.80;;
18411;SDS011;27097;51.738;19.472;2023-08-12T11:30:08;4.20;;;2.20;;
18411;SDS011;27097;51.738;19.472;2023-08-12T11:32:37;6.80;;;2.00;;
18411;SDS011;27097;51.738;19.472;2023-08-12T11:35:05;4.50;;;1.90;;
18411;SDS011;27097;51.738;19.472;2023-08-12T11:37:34;3.95;;;1.92;;
18411;SDS011;27097;51.738;19.472;2023-08-12T11:40:03;5.00;;;1.80;;
18411;SDS011;27097;51.738;19.472;2023-08-12T11:42:31;4.35;;;1.90;;
18411;SDS011;27097;51.738;19.472;2023-08-12T11:44:58;2.67;;;1.63;;
18411;SDS011;27097;51.738;19.472;2023-08-12T11:47:27;2.80;;;1.83;;
18411;SDS011;27097;51.738;19.472;2023-08-12T11:49:54;6.40;;;1.77;;
18411;SDS011;27097;51.738;19.472;2023-08-12T11:52:22;3.47;;;1.70;;
18411;SDS011;27097;51.738;19.472;2023-08-12T11:54:51;2.70;;;1.50;;
18411;SDS011;27097;51.738;19.472;2023-08-12T11:57:18;7.05;;;1.65;;
18411;SDS011;27097;51.738;19.472;2023-08-12T11:59:47;5.10;;;2.10;;
18411;SDS011;27097;51.738;19.472;2023-08-12T12:02:14;3.70;;;1.75;;
18411;SDS011;27097;51.738;19.472;2023-08-12T12:04:43;3.38;;;1.88;;
18411;SDS011;27097;51.738;19.472;2023-08-12T12:07:19;3.40;;;1.85;;
18411;SDS011;27097;51.738;19.472;2023-08-12T12:09:46;2.95;;;1.70;;
18411;SDS011;27097;51.738;19.472;2023-08-12T12:12:16;4.47;;;1.98;;
18411;SDS011;27097;51.738;19.472;2023-08-12T12:14:42;6.53;;;1.77;;
18411;SDS011;27097;51.738;19.472;2023-08-12T12:17:09;5.78;;;1.88;;
18411;SDS011;27097;51.738;19.472;2023-08-12T12:19:39;6.97;;;1.70;;
18411;SDS011;27097;51.738;19.472;2023-08-12T12:22:08;6.40;;;2.10;;
18411;SDS011;27097;51.738;19.472;2023-08-12T12:24:43;8.63;;;2.22;;
18411;SDS011;27097;51.738;19.472;2023-08-12T12:27:11;6.53;;;2.13;;
18411;SDS011;27097;51.738;19.472;2023-08-12T12:29:38;2.83;;;1.85;;
18411;SDS011;27097;51.738;19.472;2023-08-12T12:32:05;11.13;;;2.47;;
18411;SDS011;27097;51.738;19.472;2023-08-12T12:34:32;7.60;;;2.08;;
18411;SDS011;27097;51.738;19.472;2023-08-12T12:37:00;7.45;;;1.92;;
18411;SDS011;27097;51.738;19.472;2023-08-12T12:39:29;7.07;;;2.20;;
18411;SDS011;27097;51.738;19.472;2023-08-12T12:41:56;4.03;;;2.00;;
18411;SDS011;27097;51.738;19.472;2023-08-12T12:44:24;7.60;;;1.98;;
18411;SDS011;27097;51.738;19.472;2023-08-12T12:46:51;4.05;;;1.70;;
18411;SDS011;27097;51.738;19.472;2023-08-12T12:49:19;4.95;;;2.17;;
18411;SDS011;27097;51.738;19.472;2023-08-12T12:51:46;7.13;;;1.80;;
18411;SDS011;27097;51.738;19.472;2023-08-12T12:54:13;4.05;;;1.83;;
18411;SDS011;27097;51.738;19.472;2023-08-12T12:56:41;4.13;;;1.80;;
18411;SDS011;27097;51.738;19.472;2023-08-12T12:59:08;4.43;;;1.88;;
18411;SDS011;27097;51.738;19.472;2023-08-12T13:01:36;5.20;;;1.92;;
18411;SDS011;27097;51.738;19.472;2023-08-12T13:04:03;5.65;;;2.00;;
18411;SDS011;27097;51.738;19.472;2023-08-12T13:06:30;2.53;;;1.80;;
18411;SDS011;27097;51.738;19.472;2023-08-12T13:08:56;4.55;;;1.83;;
18411;SDS011;27097;51.738;19.472;2023-08-12T13:11:23;5.82;;;2.05;;
18411;SDS011;27097;51.738;19.472;2023-08-12T13:13:51;3.45;;;2.10;;
18411;SDS011;27097;51.738;19.472;2023-08-12T13:16:19;5.00;;;2.03;;
18411;SDS011;27097;51.738;19.472;2023-08-12T13:18:46;2.78;;;1.80;;
18411;SDS011;27097;51.738;19.472;2023-08-12T13:21:13;9.68;;;2.20;;
18411;SDS011;27097;51.738;19.472;2023-08-12T13:23:40;2.90;;;1.92;;
18411;SDS011;27097;51.738;19.472;2023-08-12T13:26:06;3.78;;;1.88;;
18411;SDS011;27097;51.738;19.472;2023-08-12T13:28:33;4.85;;;1.90;;
18411;SDS011;27097;51.738;19.472;2023-08-12T13:31:02;3.05;;;1.83;;
18411;SDS011;27097;51.738;19.472;2023-08-12T13:33:28;3.13;;;2.00;;
18411;SDS011;27097;51.738;19.472;2023-08-12T13:35:55;1.80;;;1.70;;
18411;SDS011;27097;51.738;19.472;2023-08-12T13:38:22;2.90;;;1.80;;
18411;SDS011;27097;51.738;19.472;2023-08-12T13:40:49;3.47;;;1.80;;
18411;SDS011;27097;51.738;19.472;2023-08-12T13:43:16;3.78;;;2.00;;
18411;SDS011;27097;51.738;19.472;2023-08-12T13:45:43;2.97;;;2.10;;
18411;SDS011;27097;51.738;19.472;2023-08-12T13:48:11;2.85;;;2.08;;
18411;SDS011;27097;51.738;19.472;2023-08-12T13:50:38;3.00;;;1.90;;
18411;SDS011;27097;51.738;19.472;2023-08-12T13:53:05;3.47;;;2.00;;
18411;SDS011;27097;51.738;19.472;2023-08-12T13:55:31;3.60;;;1.95;;
18411;SDS011;27097;51.738;19.472;2023-08-12T13:57:58;2.70;;;2.10;;
18411;SDS011;27097;51.738;19.472;2023-08-12T14:00:25;3.30;;;2.30;;
18411;SDS011;27097;51.738;19.472;2023-08-12T14:02:52;3.15;;;2.00;;
18411;SDS011;27097;51.738;19.472;2023-08-12T14:05:21;8.07;;;2.30;;
18411;SDS011;27097;51.738;19.472;2023-08-12T14:07:47;5.65;;;2.38;;
18411;SDS011;27097;51.738;19.472;2023-08-12T14:10:14;4.10;;;2.03;;
18411;SDS011;27097;51.738;19.472;2023-08-12T14:12:41;2.90;;;2.40;;
18411;SDS011;27097;51.738;19.472;2023-08-12T14:15:10;3.42;;;2.33;;
18411;SDS011;27097;51.738;19.472;2023-08-12T14:17:37;3.33;;;2.30;;
18411;SDS011;27097;51.738;19.472;2023-08-12T14:20:04;2.53;;;2.30;;
18411;SDS011;27097;51.738;19.472;2023-08-12T14:22:34;3.67;;;2.30;;
18411;SDS011;27097;51.738;19.472;2023-08-12T14:25:01;4.18;;;2.00;;
18411;SDS011;27097;51.738;19.472;2023-08-12T14:27:29;3.38;;;2.15;;
18411;SDS011;27097;51.738;19.472;2023-08-12T14:29:56;4.25;;;2.13;;
18411;SDS011;27097;51.738;19.472;2023-08-12T14:32:22;2.47;;;2.20;;
18411;SDS011;27097;51.738;19.472;2023-08-12T14:34:49;3.90;;;2.45;;
18411;SDS011;27097;51.738;19.472;2023-08-12T14:37:16;7.50;;;2.45;;
18411;SDS011;27097;51.738;19.472;2023-08-12T14:39:44;3.50;;;2.55;;